EIDWEGLC

Guest
Details From EIDW - Dublin
To EGLC - London City
Flight Number -
Tags Generated
Created
Modified
Stats Distance 258 nm / 478 km
Max Altitude 0 ft / 0 m
Waypoints 3
Social Downloads 1
Likes 0
Share VATSIM

Download

Looking for another format? Having issues loading an existing format? Contact us
Advertisement - Login to hide

Notes

Generated

Route

EIDW BKY25 EGLC

ID Type Via Altitude Latitude Longitude Leg Dist Tot Dist Heading (true) Name
O EIDW APT - 0 ft / 0 m 53.43655˚ -6.26227˚ - 0 nm - -
BKY25 FIX - 0 ft / 0 m 51.59901˚ -0.20549˚ 247 nm 247 nm 114° / 119° -
O EGLC APT - 0 ft / 0 m 51.50558˚ 0.04414˚ 10 nm 258 nm 121° / 121° -

Altitude Profile

Advertisement - Login to hide

Weather


0- 5 10 15 20 25 30 35+ Temperature / ° C

Clouds and Precipitation
Forecast for 2017-12-15 12:00 UTC. Updated an hour ago

Ground ~20,000 ft ~40,000 ft Winds

EIDW

Details ICAO EIDW (DUB)
Name Dublin
Region Ireland
Timezone Europe/Dublin (UTC+0.0)
Stats Elevation 242 ft / 74 m (AMSL)
Location 53.428264° -6.259550°
Runways 3
Magnetic Variation 3.023° W

METAR

EIDW 150800Z 32015KT 9999 FEW012 SCT020 BKN040 05/03 Q1003 NOSIG

Decode

TAF

Not found

Departure Runways

ID Width Length Bearing (true) Bearing (mag) Surface Threshold Offset Overrun Length
10 148 ft / 45 m 8,625 ft / 2,629 m 95.25° 98.27° Concrete 0 ft / 0 m 0 ft / 0 m
11 200 ft / 61 m 4,380 ft / 1,335 m 105.01° 108.03° Asphalt 279 ft / 85 m 0 ft / 0 m
16 200 ft / 61 m 6,791 ft / 2,070 m 156.64° 159.66° Asphalt 0 ft / 0 m 0 ft / 0 m
28 148 ft / 45 m 8,625 ft / 2,629 m 275.28° 278.30° Concrete 0 ft / 0 m 0 ft / 0 m
29 200 ft / 61 m 4,380 ft / 1,335 m 285.02° 288.04° Asphalt 0 ft / 0 m 0 ft / 0 m
34 200 ft / 61 m 6,791 ft / 2,070 m 336.65° 339.67° Asphalt 0 ft / 0 m 0 ft / 0 m

EGLC

Details ICAO EGLC (LCY)
Name London City
Region United Kingdom
Timezone Europe/London (UTC+0.0)
Stats Elevation 19 ft / 6 m (AMSL)
Location 51.505231° 0.055175°
Runways 1
Magnetic Variation 0.384° W

METAR

EGLC 150820Z AUTO 30006KT 270V350 9999 -RA FEW010/// BKN018/// BKN023/// //////TCU 03/02 Q0994

Decode

TAF

Not found

Destination Runways

ID Width Length Bearing (true) Bearing (mag) Surface Threshold Offset Overrun Length
09 98 ft / 30 m 4,931 ft / 1,503 m 92.89° 93.27° Concrete 322 ft / 98 m 164 ft / 50 m
27 98 ft / 30 m 4,931 ft / 1,503 m 272.91° 273.29° Concrete 243 ft / 74 m 279 ft / 85 m

Approach Navaids

Runway Type Ident Frequency Range Bearing (true) Bearing (mag) Slope Elevation
09 Localiser ILST 111.15 MHz 18 nm / 33 km 92.91° 93.29° - 19 ft / 6 m (AMSL)
09 Glidescope ILST 111.15 MHz 10 nm / 19 km 92.90° 93.29° 5.05° 35 ft / 11 m (AMSL)
09 DME ILST 111.15 MHz 18 nm / 33 km - - - 48 ft / 15 m (AMSL)
27 Localiser ILSR 111.15 MHz 18 nm / 33 km 272.89° 273.28° - 19 ft / 6 m (AMSL)
27 Glidescope ILSR 111.15 MHz 10 nm / 19 km 272.90° 273.29° 5.50° 35 ft / 11 m (AMSL)
27 DME ILSR 111.15 MHz 18 nm / 33 km - - - 48 ft / 15 m (AMSL)

Popular Alternatives